Time;durP1;ratioP1;P1;durP2;ratioP2;P2;SDS_P1;SDS_P2;PMS_P1;PMS_P2;Temp;Humidity;BMP_temperature;BMP_pressure;BME280_temperature;BME280_humidity;BME280_pressure;Samples;Min_cycle;Max_cycle;Signal;HPM_P1;HPM_P2
2022/08/03 00:00:40;;;;;;;4.20;1.75;;;23.00;1.00;;;;;;5116078;28;20670;-76
2022/08/03 00:03:05;;;;;;;3.20;1.75;;;23.00;1.00;;;;;;5116365;28;20658;-76
2022/08/03 00:05:34;;;;;;;7.32;1.88;;;22.90;1.00;;;;;;5116069;28;20277;-76
2022/08/03 00:08:00;;;;;;;4.38;1.67;;;22.90;1.00;;;;;;5116178;28;20190;-76
2022/08/03 00:10:26;;;;;;;2.78;1.70;;;22.80;1.00;;;;;;5115558;28;20250;-76
2022/08/03 00:12:52;;;;;;;3.97;1.73;;;22.80;1.00;;;;;;5116148;28;20250;-76
2022/08/03 00:15:18;;;;;;;4.03;1.80;;;22.70;1.00;;;;;;5116013;28;20186;-76
2022/08/03 00:17:44;;;;;;;5.50;1.85;;;22.70;1.00;;;;;;5115970;28;20689;-76
2022/08/03 00:20:10;;;;;;;4.25;1.77;;;22.60;1.00;;;;;;5115793;28;20305;-76
2022/08/03 00:22:36;;;;;;;4.72;1.50;;;22.50;1.00;;;;;;5115864;28;20171;-76
2022/08/03 00:25:02;;;;;;;4.55;1.83;;;22.50;1.00;;;;;;5115487;28;20533;-76
2022/08/03 00:27:27;;;;;;;6.07;1.73;;;22.50;1.00;;;;;;5115754;28;20224;-76
2022/08/03 00:29:53;;;;;;;3.45;1.95;;;22.50;1.00;;;;;;5115719;28;20170;-76
2022/08/03 00:32:18;;;;;;;5.55;1.90;;;22.40;1.00;;;;;;5114929;28;20183;-76
2022/08/03 00:34:44;;;;;;;3.60;1.73;;;22.40;1.00;;;;;;5115518;28;20183;-76
2022/08/03 00:37:09;;;;;;;3.63;1.77;;;22.40;1.00;;;;;;5115637;28;20175;-76
2022/08/03 00:39:35;;;;;;;4.70;1.95;;;22.40;1.00;;;;;;5115149;28;20736;-76
2022/08/03 00:42:02;;;;;;;4.75;1.70;;;22.40;1.00;;;;;;5115445;28;20164;-76
2022/08/03 00:44:28;;;;;;;5.50;2.00;;;22.40;1.00;;;;;;5115331;28;20164;-76
2022/08/03 00:46:53;;;;;;;7.22;2.10;;;22.40;1.00;;;;;;5115288;28;20176;-76
2022/08/03 00:49:19;;;;;;;6.15;2.10;;;22.30;1.00;;;;;;5115319;28;20167;-76
2022/08/03 00:51:45;;;;;;;5.78;1.85;;;22.30;1.00;;;;;;5115302;28;20219;-76
2022/08/03 00:54:11;;;;;;;7.22;2.03;;;22.30;1.00;;;;;;5114866;28;20186;-76
2022/08/03 00:56:37;;;;;;;4.95;2.10;;;22.30;1.00;;;;;;5115127;28;20626;-76
2022/08/03 00:59:03;;;;;;;5.93;2.17;;;22.30;1.00;;;;;;5115129;28;20210;-76
2022/08/03 01:01:29;;;;;;;6.78;2.38;;;22.30;1.00;;;;;;5115083;28;20178;-76
2022/08/03 01:03:54;;;;;;;5.68;2.00;;;22.20;1.00;;;;;;5115221;28;20167;-76
2022/08/03 01:06:38;;;;;;;7.65;2.05;;;22.20;1.00;;;;;;5115010;28;20174;-76
2022/08/03 01:09:39;;;;;;;5.43;2.10;;;22.20;1.00;;;;;;5114739;28;20167;-76
2022/08/03 01:12:18;;;;;;;5.10;1.92;;;22.10;1.00;;;;;;5114653;28;20246;-76
2022/08/03 01:15:04;;;;;;;7.63;2.40;;;22.10;1.00;;;;;;5114850;28;20224;-76
2022/08/03 01:17:45;;;;;;;6.85;2.38;;;22.00;1.00;;;;;;5089313;28;20191;-76
2022/08/03 01:20:13;;;;;;;7.55;2.00;;;21.90;1.00;;;;;;5096449;28;20718;-76
2022/08/03 01:23:00;;;;;;;8.02;1.95;;;21.90;1.00;;;;;;5096048;28;20271;-76
2022/08/03 01:25:50;;;;;;;7.88;2.17;;;21.90;1.00;;;;;;5114733;28;20242;-76
2022/08/03 01:28:36;;;;;;;6.40;1.98;;;21.90;1.00;;;;;;5114627;28;20175;-76
2022/08/03 01:31:07;;;;;;;5.40;1.90;;;21.80;1.00;;;;;;5114697;28;20159;-76
2022/08/03 01:33:40;;;;;;;7.20;2.33;;;21.70;1.00;;;;;;5114584;28;20311;-76
2022/08/03 01:36:13;;;;;;;6.88;2.05;;;21.70;1.00;;;;;;5095983;28;20637;-76
2022/08/03 01:38:48;;;;;;;6.57;1.95;;;21.70;1.00;;;;;;5096104;28;20167;-76
2022/08/03 01:41:18;;;;;;;6.22;2.05;;;21.70;1.00;;;;;;5114659;28;20228;-76
2022/08/03 01:43:48;;;;;;;9.77;2.05;;;21.60;1.00;;;;;;5096046;28;20179;-76
2022/08/03 01:46:15;;;;;;;12.23;2.63;;;21.60;1.00;;;;;;5114441;28;20163;-76
2022/08/03 01:48:43;;;;;;;8.80;2.80;;;21.70;1.00;;;;;;5096120;28;20571;-76
2022/08/03 01:51:10;;;;;;;9.70;2.22;;;21.70;1.00;;;;;;5114006;28;20167;-76
2022/08/03 01:53:39;;;;;;;5.78;2.05;;;21.60;1.00;;;;;;5114441;28;20186;-76
2022/08/03 01:56:05;;;;;;;5.07;2.10;;;21.60;2.00;;;;;;5114201;28;20186;-76
2022/08/03 01:58:34;;;;;;;10.82;2.35;;;21.70;1.20;;;;;;5114410;28;20170;-76
2022/08/03 02:01:02;;;;;;;11.52;2.40;;;21.70;1.50;;;;;;5114411;28;20183;-76
2022/08/03 02:03:30;;;;;;;6.38;2.03;;;21.60;1.00;;;;;;5113936;28;20673;-76
2022/08/03 02:05:57;;;;;;;10.60;2.47;;;21.60;3.70;;;;;;5113756;28;20657;-76
2022/08/03 02:08:25;;;;;;;10.63;2.30;;;21.50;5.90;;;;;;5113899;28;20220;-76
2022/08/03 02:10:53;;;;;;;8.93;2.08;;;21.50;10.30;;;;;;5113637;28;20211;-76
2022/08/03 02:13:20;;;;;;;6.50;1.88;;;21.40;12.90;;;;;;5114050;28;20175;-75
2022/08/03 02:15:47;;;;;;;7.38;1.75;;;21.40;13.40;;;;;;5113712;28;20239;-76
2022/08/03 02:18:14;;;;;;;8.50;2.45;;;21.40;12.30;;;;;;5113662;28;20167;-77
2022/08/03 02:20:43;;;;;;;5.45;2.30;;;21.30;15.80;;;;;;5113146;28;20213;-76
2022/08/03 02:23:08;;;;;;;9.07;2.28;;;21.30;15.20;;;;;;5113703;28;20250;-75
2022/08/03 02:25:41;;;;;;;8.27;2.50;;;21.30;12.70;;;;;;5113674;28;20229;-75
2022/08/03 02:28:11;;;;;;;7.93;2.60;;;21.40;13.00;;;;;;5113941;28;20163;-75
2022/08/03 02:30:39;;;;;;;8.18;2.40;;;21.40;11.70;;;;;;5113684;28;20637;-75
2022/08/03 02:33:12;;;;;;;6.80;2.13;;;21.40;12.70;;;;;;5113584;28;20183;-76
2022/08/03 02:35:39;;;;;;;5.43;1.98;;;21.30;12.60;;;;;;5113200;28;20193;-76
2022/08/03 02:38:09;;;;;;;4.60;2.15;;;21.20;18.00;;;;;;5113500;28;20169;-75
2022/08/03 02:40:35;;;;;;;8.65;2.10;;;21.20;19.10;;;;;;5113265;28;20800;-76
2022/08/03 02:43:10;;;;;;;8.00;2.30;;;21.20;17.70;;;;;;5112908;28;20182;-75
2022/08/03 02:45:41;;;;;;;9.15;2.40;;;21.10;19.70;;;;;;5113362;28;20193;-75
2022/08/03 02:48:08;;;;;;;6.25;2.50;;;21.10;21.90;;;;;;5113314;28;20167;-76
2022/08/03 02:50:34;;;;;;;5.82;2.38;;;21.10;25.00;;;;;;5113127;28;20163;-75
2022/08/03 02:53:01;;;;;;;5.05;2.17;;;21.10;25.30;;;;;;5113581;28;20176;-76
2022/08/03 02:55:28;;;;;;;7.40;1.95;;;21.00;26.50;;;;;;5113901;28;20239;-75
2022/08/03 02:57:56;;;;;;;6.40;2.38;;;21.00;26.20;;;;;;5117432;28;20219;-75
2022/08/03 03:00:22;;;;;;;5.25;2.47;;;21.10;24.30;;;;;;5117411;28;20207;-75
2022/08/03 03:02:48;;;;;;;8.55;2.67;;;21.10;25.00;;;;;;5117157;28;20238;-76
2022/08/03 03:05:15;;;;;;;5.78;2.05;;;21.00;24.00;;;;;;5117269;28;20186;-75
2022/08/03 03:07:42;;;;;;;4.05;2.10;;;21.00;23.10;;;;;;5117501;28;20168;-76
2022/08/03 03:10:08;;;;;;;3.20;1.95;;;21.00;25.00;;;;;;5117399;28;20197;-75
2022/08/03 03:12:36;;;;;;;4.15;2.00;;;21.00;22.90;;;;;;5076228;28;20216;-75
2022/08/03 03:15:05;;;;;;;3.58;2.08;;;21.00;24.30;;;;;;5076529;28;20646;-76
2022/08/03 03:17:31;;;;;;;3.88;1.80;;;20.90;25.10;;;;;;5076176;28;20260;-76
2022/08/03 03:19:59;;;;;;;10.00;2.70;;;20.90;26.60;;;;;;5076321;28;20314;-76
2022/08/03 03:22:26;;;;;;;5.63;2.30;;;20.90;27.10;;;;;;5076572;28;20259;-75
2022/08/03 03:24:53;;;;;;;6.25;2.10;;;20.90;28.20;;;;;;5076134;28;20172;-76
2022/08/03 03:27:19;;;;;;;6.70;2.30;;;20.90;29.30;;;;;;5076305;28;20230;-76
2022/08/03 03:29:45;;;;;;;8.00;2.20;;;20.80;31.50;;;;;;5076242;28;20219;-75
2022/08/03 03:32:10;;;;;;;7.18;2.30;;;20.80;32.00;;;;;;5075920;28;20515;-76
2022/08/03 03:34:36;;;;;;;10.02;2.65;;;20.80;32.80;;;;;;5076144;28;20211;-76
2022/08/03 03:37:02;;;;;;;8.15;2.88;;;20.90;33.60;;;;;;5076141;28;20643;-75
2022/08/03 03:39:28;;;;;;;9.02;2.58;;;20.90;33.60;;;;;;5075605;28;20208;-75
2022/08/03 03:41:54;;;;;;;8.85;2.38;;;20.80;33.00;;;;;;5075987;28;20165;-75
2022/08/03 03:44:19;;;;;;;4.07;2.47;;;20.80;34.60;;;;;;5075756;28;20578;-76
2022/08/03 03:46:45;;;;;;;12.43;2.10;;;20.90;34.20;;;;;;5074924;28;20176;-75
2022/08/03 03:49:10;;;;;;;5.40;2.20;;;20.90;31.80;;;;;;5075981;28;20177;-76
2022/08/03 03:51:36;;;;;;;5.43;2.40;;;20.80;34.30;;;;;;5074442;28;20642;-76
2022/08/03 03:54:05;;;;;;;6.78;2.45;;;20.80;32.90;;;;;;5075498;28;20643;-76
2022/08/03 03:56:32;;;;;;;4.93;2.25;;;20.80;33.50;;;;;;5075520;28;20679;-76
2022/08/03 03:58:57;;;;;;;8.77;2.28;;;20.80;33.70;;;;;;5075626;28;20200;-76
2022/08/03 04:01:24;;;;;;;3.88;2.25;;;20.80;33.30;;;;;;5075370;28;20545;-76
2022/08/03 04:03:49;;;;;;;5.22;2.30;;;20.80;35.10;;;;;;5075813;28;20160;-76
2022/08/03 04:11:52;;;;;;;6.63;2.00;;;20.80;33.50;;;;;;5073952;28;20274;-77
2022/08/03 04:14:20;;;;;;;7.57;2.08;;;20.70;37.70;;;;;;5075472;28;20169;-77
2022/08/03 04:16:50;;;;;;;11.68;2.45;;;20.70;39.80;;;;;;5073356;28;20222;-76
2022/08/03 04:19:41;;;;;;;6.88;2.42;;;20.70;40.40;;;;;;5075306;28;20550;-76
2022/08/03 04:22:10;;;;;;;7.35;2.20;;;20.70;38.50;;;;;;5075248;28;20167;-76
2022/08/03 04:24:58;;;;;;;6.00;2.45;;;20.70;39.40;;;;;;5075228;28;20172;-76
2022/08/03 04:27:27;;;;;;;7.43;2.60;;;20.70;40.30;;;;;;5074913;28;20180;-77
2022/08/03 04:29:54;;;;;;;8.52;2.90;;;20.80;37.90;;;;;;5074786;28;20161;-77
2022/08/03 04:32:24;;;;;;;6.10;2.40;;;20.80;39.60;;;;;;5074774;28;20628;-76
2022/08/03 04:34:50;;;;;;;5.68;2.20;;;21.00;39.30;;;;;;5074651;28;20263;-75
2022/08/03 04:37:44;;;;;;;5.82;2.55;;;21.20;26.10;;;;;;5074742;28;20172;-75
2022/08/03 04:40:13;;;;;;;10.57;2.50;;;21.90;1.40;;;;;;5073364;28;20266;-75
2022/08/03 04:42:40;;;;;;;9.45;2.13;;;22.40;1.00;;;;;;5074779;28;20165;-76
2022/08/03 04:45:10;;;;;;;6.75;2.78;;;22.70;1.00;;;;;;5074102;28;20172;-76
2022/08/03 04:47:37;;;;;;;7.57;2.17;;;23.00;1.00;;;;;;5074626;28;20264;-76
2022/08/03 04:50:04;;;;;;;9.05;2.45;;;23.40;1.00;;;;;;5074379;28;20180;-76
2022/08/03 04:52:30;;;;;;;5.32;2.55;;;24.10;1.00;;;;;;5072888;28;20172;-75
2022/08/03 04:54:56;;;;;;;10.80;2.38;;;25.00;1.00;;;;;;5073943;28;20176;-76
2022/08/03 04:57:22;;;;;;;9.77;2.83;;;26.00;1.00;;;;;;5074270;28;20161;-78
2022/08/03 04:59:51;;;;;;;7.82;2.85;;;26.80;99.90;;;;;;5073647;28;20553;-78
2022/08/03 05:02:17;;;;;;;8.57;2.25;;;27.90;1.00;;;;;;5074370;28;20164;-77
2022/08/03 05:04:45;;;;;;;10.45;2.35;;;28.50;1.00;;;;;;5073935;28;20520;-78
2022/08/03 05:07:14;;;;;;;8.77;2.30;;;28.80;1.00;;;;;;5074363;28;20169;-76
2022/08/03 05:09:40;;;;;;;16.80;2.67;;;29.20;70.00;;;;;;5073835;28;20187;-76
2022/08/03 05:12:06;;;;;;;4.85;2.40;;;30.00;1.00;;;;;;5103171;28;20674;-76
2022/08/03 05:14:33;;;;;;;11.30;2.45;;;31.20;1.00;;;;;;5114321;28;20183;-76
2022/08/03 05:16:58;;;;;;;10.35;2.30;;;31.60;99.90;;;;;;5114161;28;20164;-77
2022/08/03 05:19:24;;;;;;;9.65;2.30;;;31.90;99.90;;;;;;5113784;28;20203;-76
2022/08/03 05:21:50;;;;;;;8.38;2.22;;;32.20;99.90;;;;;;5114578;28;20648;-77
2022/08/03 05:24:15;;;;;;;9.85;2.35;;;32.90;99.90;;;;;;5114294;28;20179;-77
2022/08/03 05:26:41;;;;;;;7.05;2.55;;;33.80;99.90;;;;;;5114241;28;20195;-77
2022/08/03 05:29:07;;;;;;;10.82;2.58;;;33.90;99.90;;;;;;5114145;28;20242;-77
2022/08/03 05:31:32;;;;;;;5.47;2.30;;;34.60;99.90;;;;;;5096102;28;20623;-77
2022/08/03 05:33:58;;;;;;;11.77;2.70;;;35.20;99.90;;;;;;5113786;28;20187;-78
2022/08/03 05:36:23;;;;;;;7.93;2.42;;;35.70;99.90;;;;;;5114553;28;20167;-78
2022/08/03 05:38:49;;;;;;;12.93;2.80;;;36.10;99.90;;;;;;5113669;28;20171;-78
2022/08/03 05:41:14;;;;;;;8.38;2.60;;;36.20;99.90;;;;;;5113779;28;20177;-79
2022/08/03 05:43:40;;;;;;;11.10;2.60;;;36.00;99.90;;;;;;5113893;28;20254;-78
2022/08/03 05:46:06;;;;;;;10.82;3.17;;;36.80;99.90;;;;;;5113776;28;20250;-78
2022/08/03 05:48:31;;;;;;;9.52;2.92;;;37.10;99.90;;;;;;5095885;28;20171;-79
2022/08/03 05:50:57;;;;;;;7.43;2.60;;;37.90;98.90;;;;;;5113635;28;20267;-78
2022/08/03 05:53:22;;;;;;;8.80;2.30;;;38.40;87.80;;;;;;5113682;28;20163;-79
2022/08/03 05:55:48;;;;;;;9.70;2.20;;;38.30;75.10;;;;;;5113615;28;20167;-79
2022/08/03 05:58:14;;;;;;;10.98;2.72;;;38.10;68.50;;;;;;5113496;28;20648;-78
2022/08/03 06:00:39;;;;;;;6.18;2.47;;;38.60;58.20;;;;;;5113441;28;20202;-78
2022/08/03 06:03:05;;;;;;;10.00;2.80;;;38.40;54.10;;;;;;5112892;28;20175;-78
2022/08/03 06:05:31;;;;;;;10.20;3.03;;;37.80;52.30;;;;;;5113462;28;20202;-77
2022/08/03 06:07:57;;;;;;;7.07;2.45;;;37.70;51.20;;;;;;5113665;28;20551;-77
2022/08/03 06:10:22;;;;;;;9.20;2.45;;;36.80;54.10;;;;;;5094778;28;20182;-77
2022/08/03 06:12:49;;;;;;;5.78;1.90;;;36.40;58.80;;;;;;5112653;28;20182;-77
2022/08/03 06:15:15;;;;;;;9.80;2.72;;;36.70;59.00;;;;;;5095157;28;20637;-77
2022/08/03 06:17:46;;;;;;;7.53;2.80;;;37.60;54.30;;;;;;5113118;28;20293;-78
2022/08/03 06:20:11;;;;;;;10.80;2.47;;;37.50;49.90;;;;;;5113325;28;20207;-77
2022/08/03 06:22:37;;;;;;;9.40;2.80;;;37.80;45.80;;;;;;5113124;28;20167;-79
2022/08/03 06:25:03;;;;;;;9.52;2.80;;;37.50;37.90;;;;;;5113128;28;20232;-78
2022/08/03 06:27:28;;;;;;;10.35;2.50;;;36.30;45.90;;;;;;5112784;28;20530;-78
2022/08/03 06:29:54;;;;;;;7.43;2.60;;;37.00;50.80;;;;;;5112503;28;20171;-76
2022/08/03 06:32:21;;;;;;;11.27;2.72;;;37.40;43.20;;;;;;5112458;28;20677;-77
2022/08/03 06:34:47;;;;;;;9.13;2.45;;;37.80;41.60;;;;;;5112985;28;20186;-77
2022/08/03 06:37:13;;;;;;;7.97;2.75;;;38.80;36.50;;;;;;5113169;28;20163;-78
2022/08/03 06:39:38;;;;;;;8.07;2.80;;;38.90;26.10;;;;;;5112969;28;20224;-78
2022/08/03 06:42:04;;;;;;;12.40;3.13;;;39.50;24.10;;;;;;5112821;28;20654;-77
2022/08/03 06:44:30;;;;;;;9.65;2.50;;;39.30;22.20;;;;;;5113114;28;20170;-76
2022/08/03 06:46:55;;;;;;;8.02;2.25;;;40.10;17.10;;;;;;5112971;28;20214;-76
2022/08/03 06:49:21;;;;;;;10.55;2.30;;;40.30;13.30;;;;;;5112588;28;20629;-76
2022/08/03 06:51:47;;;;;;;9.82;2.70;;;39.70;11.90;;;;;;5113105;28;20174;-76
2022/08/03 06:54:12;;;;;;;7.90;2.58;;;40.30;1.00;;;;;;5112501;28;20167;-76
2022/08/03 06:56:38;;;;;;;6.50;2.20;;;41.00;1.00;;;;;;5112505;28;20516;-75
2022/08/03 06:59:04;;;;;;;3.88;1.90;;;40.80;1.00;;;;;;5112779;28;20251;-75
2022/08/03 07:01:29;;;;;;;7.13;1.95;;;40.30;1.00;;;;;;5112452;28;20202;-75
2022/08/03 07:03:55;;;;;;;8.48;1.92;;;41.30;1.00;;;;;;5112250;28;20170;-75
2022/08/03 07:06:21;;;;;;;5.68;2.05;;;41.60;1.00;;;;;;5112645;28;20167;-75
2022/08/03 07:08:46;;;;;;;3.15;1.67;;;42.00;1.00;;;;;;5112447;28;20185;-76
2022/08/03 07:11:12;;;;;;;6.35;1.67;;;42.00;1.00;;;;;;5111156;28;20238;-76
2022/08/03 07:13:40;;;;;;;6.07;2.00;;;41.00;1.00;;;;;;5111960;28;20179;-74
2022/08/03 07:16:05;;;;;;;2.40;1.63;;;41.80;1.00;;;;;;5108769;28;20162;-75
2022/08/03 07:18:31;;;;;;;4.15;1.73;;;42.20;1.00;;;;;;5111211;28;20639;-75
2022/08/03 07:20:57;;;;;;;5.60;1.65;;;42.10;1.00;;;;;;5112208;28;20230;-75
2022/08/03 07:23:24;;;;;;;5.35;1.70;;;42.60;1.00;;;;;;5112084;28;20224;-75
2022/08/03 07:25:49;;;;;;;5.97;2.10;;;42.90;1.00;;;;;;5111833;28;20171;-75
2022/08/03 07:28:15;;;;;;;5.05;1.70;;;43.00;1.00;;;;;;5112131;28;20175;-76
2022/08/03 07:30:41;;;;;;;3.72;1.60;;;42.00;1.00;;;;;;5105604;28;20175;-76
2022/08/03 07:33:06;;;;;;;4.93;1.98;;;41.20;1.00;;;;;;5105810;28;20549;-75
2022/08/03 07:35:32;;;;;;;3.10;1.52;;;41.00;1.00;;;;;;5111791;28;20178;-76
2022/08/03 07:37:57;;;;;;;5.93;1.80;;;40.50;1.00;;;;;;5111354;28;20637;-75
2022/08/03 07:40:23;;;;;;;7.32;1.90;;;40.30;1.00;;;;;;5094034;28;20297;-75
2022/08/03 07:42:48;;;;;;;3.58;1.75;;;40.80;1.00;;;;;;5114579;28;20171;-74
2022/08/03 07:45:14;;;;;;;5.07;2.17;;;38.80;1.00;;;;;;5114354;28;20171;-74
2022/08/03 07:47:40;;;;;;;6.40;1.85;;;40.30;1.00;;;;;;5116368;28;20278;-74
2022/08/03 07:50:06;;;;;;;7.50;1.95;;;40.40;1.00;;;;;;5115783;28;20228;-75
2022/08/03 07:52:47;;;;;;;4.40;1.55;;;40.60;1.00;;;;;;5115965;28;20170;-75
2022/08/03 07:55:27;;;;;;;3.25;1.70;;;40.70;1.00;;;;;;5094893;28;20183;-74
2022/08/03 07:58:08;;;;;;;6.15;1.80;;;40.00;1.00;;;;;;5095625;28;20201;-75
2022/08/03 08:00:34;;;;;;;3.08;2.00;;;40.70;1.00;;;;;;5095141;28;20211;-74
2022/08/03 08:03:00;;;;;;;7.47;2.33;;;41.20;1.00;;;;;;5110944;28;20630;-74
2022/08/03 08:05:27;;;;;;;5.85;1.90;;;41.10;1.00;;;;;;5115444;28;20171;-74
2022/08/03 08:07:53;;;;;;;5.40;1.90;;;40.70;1.00;;;;;;5115211;28;20166;-75
2022/08/03 08:10:19;;;;;;;5.85;2.05;;;40.90;1.00;;;;;;5110789;28;20296;-75
2022/08/03 08:12:45;;;;;;;6.47;1.85;;;41.40;1.00;;;;;;5115117;28;20253;-75
2022/08/03 08:15:10;;;;;;;7.80;1.90;;;41.60;1.00;;;;;;5115459;28;20185;-75
2022/08/03 08:17:54;;;;;;;8.30;2.40;;;41.90;1.00;;;;;;5115413;28;20167;-74
2022/08/03 08:20:23;;;;;;;9.23;2.25;;;41.50;1.00;;;;;;5115064;28;20697;-75
2022/08/03 08:22:48;;;;;;;4.47;1.88;;;40.70;1.00;;;;;;5114899;28;20242;-75
2022/08/03 08:25:14;;;;;;;4.05;1.90;;;40.40;1.00;;;;;;5114980;28;20532;-76
2022/08/03 08:27:48;;;;;;;8.40;2.05;;;39.50;1.00;;;;;;5115332;28;20225;-75
2022/08/03 08:30:17;;;;;;;7.25;2.00;;;39.40;1.00;;;;;;5115323;28;20196;-75
2022/08/03 08:32:44;;;;;;;9.32;2.40;;;40.60;1.00;;;;;;5115057;28;20159;-74
2022/08/03 08:35:10;;;;;;;7.60;2.22;;;40.80;1.00;;;;;;5114779;28;20167;-75
2022/08/03 08:37:36;;;;;;;8.48;2.50;;;41.40;1.00;;;;;;5114080;28;20151;-75
2022/08/03 08:40:03;;;;;;;7.15;2.00;;;41.70;1.00;;;;;;5114599;28;20214;-75
2022/08/03 08:42:30;;;;;;;9.43;2.45;;;40.70;1.00;;;;;;5099430;28;20304;-75
2022/08/03 08:44:56;;;;;;;5.20;1.95;;;40.70;1.00;;;;;;5114863;28;20158;-75
2022/08/03 08:47:24;;;;;;;7.40;2.05;;;39.60;1.00;;;;;;5114717;28;20249;-74
2022/08/03 08:49:53;;;;;;;7.95;2.40;;;39.00;1.00;;;;;;5113828;28;20183;-76
2022/08/03 08:52:25;;;;;;;9.57;2.50;;;39.00;1.00;;;;;;5113995;28;20159;-76
2022/08/03 08:54:57;;;;;;;7.43;2.17;;;38.50;1.00;;;;;;5086370;28;20649;-78
2022/08/03 08:57:28;;;;;;;6.78;2.30;;;38.80;1.00;;;;;;5114175;28;20175;-76
2022/08/03 08:59:55;;;;;;;9.65;2.13;;;38.70;1.00;;;;;;5114065;28;20198;-77
2022/08/03 09:02:28;;;;;;;5.15;1.77;;;39.70;1.00;;;;;;5114501;28;20171;-78
2022/08/03 09:04:54;;;;;;;7.00;2.15;;;39.40;1.00;;;;;;5105797;28;20203;-77
2022/08/03 09:07:19;;;;;;;6.80;2.00;;;39.50;1.00;;;;;;5104608;28;20163;-76
2022/08/03 09:09:45;;;;;;;7.93;2.13;;;39.30;1.00;;;;;;5099267;28;20213;-77
2022/08/03 09:12:11;;;;;;;5.97;2.17;;;39.20;1.00;;;;;;5094171;28;20242;-76
2022/08/03 09:14:36;;;;;;;3.65;1.65;;;39.40;1.00;;;;;;5101035;28;20171;-77
2022/08/03 09:17:03;;;;;;;6.43;1.90;;;40.00;1.00;;;;;;5114127;28;20171;-74
2022/08/03 09:19:33;;;;;;;5.35;1.70;;;41.20;1.00;;;;;;5114535;28;20202;-74
2022/08/03 09:22:09;;;;;;;7.25;1.95;;;41.20;1.00;;;;;;5113678;28;20166;-76
2022/08/03 09:24:36;;;;;;;6.93;1.73;;;41.70;1.00;;;;;;5114752;28;20209;-76
2022/08/03 09:27:03;;;;;;;6.50;1.70;;;41.70;1.00;;;;;;5114029;28;20201;-77
2022/08/03 09:29:31;;;;;;;5.03;1.88;;;40.90;1.00;;;;;;5114201;28;20182;-77
2022/08/03 09:32:02;;;;;;;6.55;1.90;;;40.40;1.00;;;;;;5113947;28;20167;-79
2022/08/03 09:34:28;;;;;;;4.32;1.30;;;41.20;1.00;;;;;;5114030;28;20183;-76
2022/08/03 09:36:57;;;;;;;3.58;1.73;;;41.30;1.00;;;;;;5113973;28;20758;-76
2022/08/03 09:39:30;;;;;;;7.00;1.58;;;40.90;1.00;;;;;;5114047;28;20217;-76
2022/08/03 09:42:13;;;;;;;3.60;1.70;;;40.70;1.00;;;;;;5110138;28;20274;-76
2022/08/03 09:44:42;;;;;;;4.95;1.60;;;40.90;1.00;;;;;;5102983;28;20175;-76
2022/08/03 09:47:09;;;;;;;5.72;1.48;;;40.30;1.00;;;;;;5104236;28;20245;-76
2022/08/03 09:49:35;;;;;;;3.80;1.65;;;39.90;1.00;;;;;;5083056;28;20164;-76
2022/08/03 09:52:14;;;;;;;4.95;1.40;;;39.60;1.00;;;;;;5102691;28;20187;-75
2022/08/03 09:54:41;;;;;;;3.25;1.40;;;39.10;1.00;;;;;;5100780;28;20170;-77
2022/08/03 09:57:07;;;;;;;6.88;1.65;;;39.60;1.00;;;;;;5092811;28;20182;-77
2022/08/03 09:59:33;;;;;;;9.05;1.70;;;39.60;1.00;;;;;;5092331;28;20199;-77
2022/08/03 10:01:59;;;;;;;2.72;1.38;;;39.80;1.00;;;;;;5095766;28;20669;-77
2022/08/03 10:04:25;;;;;;;7.15;1.90;;;39.00;1.00;;;;;;5101175;28;20195;-75
2022/08/03 10:07:01;;;;;;;3.80;1.55;;;39.00;1.00;;;;;;5109585;28;20213;-75
2022/08/03 10:09:27;;;;;;;4.55;1.52;;;38.80;1.00;;;;;;5113939;28;20170;-77
2022/08/03 10:11:54;;;;;;;4.63;1.42;;;37.70;1.00;;;;;;5113105;28;20738;-75
2022/08/03 10:14:21;;;;;;;2.38;1.13;;;37.10;1.00;;;;;;5113269;28;20163;-74
2022/08/03 10:16:47;;;;;;;2.10;1.10;;;36.60;1.00;;;;;;5112882;28;20178;-75
2022/08/03 10:19:14;;;;;;;5.25;1.50;;;37.60;1.00;;;;;;5111932;28;20209;-78
2022/08/03 10:21:48;;;;;;;3.05;1.30;;;38.00;1.00;;;;;;5105381;28;20190;-76
2022/08/03 10:24:16;;;;;;;4.35;1.48;;;38.20;1.00;;;;;;5101609;28;20166;-76
2022/08/03 10:26:43;;;;;;;4.25;1.52;;;38.60;1.00;;;;;;5102215;28;20796;-78
2022/08/03 10:29:20;;;;;;;2.10;1.65;;;39.40;1.00;;;;;;5103208;28;20292;-76
2022/08/03 10:31:47;;;;;;;4.10;1.23;;;38.70;1.00;;;;;;5098272;28;20175;-76
2022/08/03 10:34:25;;;;;;;5.57;1.80;;;38.80;1.00;;;;;;5111889;28;20269;-75
2022/08/03 10:36:54;;;;;;;3.88;1.17;;;39.20;1.00;;;;;;5103700;28;20167;-76
2022/08/03 10:39:22;;;;;;;2.35;1.10;;;39.00;1.00;;;;;;5101109;28;20198;-75
2022/08/03 10:41:49;;;;;;;2.35;1.33;;;39.40;1.00;;;;;;5105502;28;20842;-76
2022/08/03 10:44:21;;;;;;;5.85;1.48;;;38.60;1.00;;;;;;5111886;28;20185;-77
2022/08/03 10:46:49;;;;;;;1.90;1.20;;;38.80;1.00;;;;;;5111768;28;20177;-77
2022/08/03 10:49:19;;;;;;;5.57;1.30;;;38.80;1.00;;;;;;5112274;28;20165;-75
2022/08/03 10:51:46;;;;;;;1.85;1.17;;;38.90;1.00;;;;;;5111839;28;20163;-75
2022/08/03 10:57:33;;;;;;;4.15;1.33;;;38.20;1.00;;;;;;5104250;28;20174;-73
2022/08/03 10:57:41;;;;;;;2.83;1.25;;;38.60;1.00;;;;;;5102955;28;20532;-75
2022/08/03 11:00:08;;;;;;;7.43;1.95;;;38.50;1.00;;;;;;5102747;28;20190;-75
2022/08/03 11:03:05;;;;;;;5.72;1.25;;;39.00;1.00;;;;;;5109890;28;20242;-76
2022/08/03 11:05:34;;;;;;;3.42;1.30;;;39.10;1.00;;;;;;5107243;28;20266;-76
2022/08/03 11:08:27;;;;;;;5.50;1.50;;;38.20;1.00;;;;;;5110374;28;20266;-77
2022/08/03 11:11:18;;;;;;;6.38;1.48;;;37.50;1.00;;;;;;5109375;28;20255;-76
2022/08/03 11:13:56;;;;;;;4.22;1.10;;;37.00;1.00;;;;;;5107303;28;20265;-75
2022/08/03 11:16:24;;;;;;;6.22;1.05;;;37.00;1.00;;;;;;5101789;28;20202;-76
2022/08/03 11:18:57;;;;;;;1.42;1.10;;;36.90;1.00;;;;;;5105609;28;20169;-75
2022/08/03 11:21:51;;;;;;;3.60;1.40;;;37.50;1.00;;;;;;5109931;28;20175;-75
2022/08/03 11:24:35;;;;;;;1.15;0.93;;;38.40;1.00;;;;;;5115536;28;20177;-75
2022/08/03 11:27:21;;;;;;;8.43;1.30;;;37.90;1.00;;;;;;5114682;28;20223;-76
2022/08/03 11:29:56;;;;;;;3.70;1.50;;;37.40;1.00;;;;;;5097401;28;20175;-75
2022/08/03 11:32:37;;;;;;;1.23;1.13;;;37.70;1.00;;;;;;5115015;28;20170;-75
2022/08/03 11:35:11;;;;;;;4.43;1.20;;;37.30;1.00;;;;;;5115773;28;20166;-74
2022/08/03 11:37:56;;;;;;;2.22;1.10;;;37.10;1.00;;;;;;5115335;28;20179;-73
2022/08/03 11:40:35;;;;;;;7.05;1.30;;;37.50;1.00;;;;;;5115014;28;20230;-72
2022/08/03 11:43:01;;;;;;;4.38;1.08;;;37.50;1.00;;;;;;5115688;28;20273;-72
2022/08/03 11:45:27;;;;;;;1.77;1.00;;;37.20;1.00;;;;;;5115033;28;20265;-71
2022/08/03 11:47:54;;;;;;;2.17;1.00;;;37.10;1.00;;;;;;5103413;28;20274;-72
2022/08/03 11:50:21;;;;;;;2.22;1.10;;;37.20;1.00;;;;;;5115753;28;20166;-72
2022/08/03 11:52:47;;;;;;;6.75;1.40;;;36.90;1.00;;;;;;5115231;28;20193;-73
2022/08/03 11:55:17;;;;;;;5.32;1.65;;;36.80;1.00;;;;;;5113567;28;20173;-74
2022/08/03 11:57:45;;;;;;;2.42;1.10;;;36.50;1.00;;;;;;5115831;28;20171;-74
2022/08/03 12:00:29;;;;;;;2.38;1.08;;;36.40;1.00;;;;;;5114961;28;20254;-73
2022/08/03 12:02:56;;;;;;;1.77;0.90;;;36.50;1.00;;;;;;5100998;28;20155;-75
2022/08/03 12:05:52;;;;;;;6.60;1.42;;;36.10;1.00;;;;;;5115514;28;20254;-75
2022/08/03 12:08:26;;;;;;;3.30;1.60;;;35.70;1.00;;;;;;5114834;28;20227;-74
2022/08/03 12:10:53;;;;;;;2.58;1.00;;;35.70;1.00;;;;;;5115058;28;20296;-76
2022/08/03 12:13:21;;;;;;;5.28;1.52;;;35.20;1.00;;;;;;5115469;28;20167;-76
2022/08/03 12:15:59;;;;;;;9.63;1.48;;;34.80;1.00;;;;;;5114384;28;20254;-76
2022/08/03 12:18:25;;;;;;;2.03;1.30;;;34.20;1.00;;;;;;5115423;28;20254;-77
2022/08/03 12:20:53;;;;;;;3.58;1.10;;;34.20;1.00;;;;;;5113442;28;20721;-76
2022/08/03 12:23:19;;;;;;;2.47;1.23;;;34.20;1.00;;;;;;5103041;28;20203;-76
2022/08/03 12:25:46;;;;;;;3.78;1.45;;;34.00;1.00;;;;;;5091953;28;20695;-75
2022/08/03 12:28:11;;;;;;;2.25;0.98;;;34.00;1.00;;;;;;5113024;28;20603;-77
2022/08/03 12:30:38;;;;;;;1.67;1.02;;;33.90;1.00;;;;;;5096280;28;20170;-75
2022/08/03 12:33:20;;;;;;;0.80;0.80;;;34.00;1.00;;;;;;5114755;28;20194;-74
2022/08/03 12:36:02;;;;;;;1.73;1.20;;;33.70;1.10;;;;;;5115053;28;20539;-75
2022/08/03 12:38:28;;;;;;;4.72;1.23;;;33.90;3.20;;;;;;5113845;28;20167;-74
2022/08/03 12:40:58;;;;;;;1.42;1.00;;;33.70;2.80;;;;;;5113532;28;20206;-74
2022/08/03 12:43:24;;;;;;;1.67;1.13;;;33.70;2.90;;;;;;5112861;28;20186;-74
2022/08/03 12:45:50;;;;;;;4.55;2.17;;;33.60;1.00;;;;;;5114088;28;20642;-74
2022/08/03 12:48:15;;;;;;;4.28;1.27;;;33.50;2.60;;;;;;5114144;28;20175;-74
2022/08/03 12:50:41;;;;;;;1.35;1.10;;;33.70;4.90;;;;;;5114096;28;20693;-74
2022/08/03 12:53:08;;;;;;;4.07;1.40;;;33.90;4.50;;;;;;5096259;28;20665;-74
2022/08/03 12:55:38;;;;;;;5.88;1.33;;;33.90;5.80;;;;;;5114007;28;20220;-75
2022/08/03 12:58:06;;;;;;;2.92;1.38;;;33.80;4.10;;;;;;5105308;28;20163;-75
2022/08/03 13:00:32;;;;;;;3.65;1.40;;;33.70;3.80;;;;;;5112822;28;20222;-73
2022/08/03 13:03:06;;;;;;;6.28;1.25;;;33.80;5.20;;;;;;5113235;28;20246;-74
2022/08/03 13:05:41;;;;;;;3.55;1.20;;;34.10;5.30;;;;;;5113766;28;20529;-74
2022/08/03 13:08:22;;;;;;;1.02;0.90;;;34.10;3.50;;;;;;5113689;28;20163;-75